sensor_id;sensor_type;location;lat;lon;timestamp;pressure;altitude;pressure_sealevel;temperature;humidity
77431;BME280;66498;48.564;19.272;2023-07-13T00:00:17;97407.75;;;18.82;90.79
77431;BME280;66498;48.564;19.272;2023-07-13T00:02:43;97402.69;;;19.15;88.86
77431;BME280;66498;48.564;19.272;2023-07-13T00:05:09;97399.56;;;19.08;89.30
77431;BME280;66498;48.564;19.272;2023-07-13T00:07:35;97410.59;;;18.91;91.23
77431;BME280;66498;48.564;19.272;2023-07-13T00:10:02;97396.50;;;19.25;91.69
77431;BME280;66498;48.564;19.272;2023-07-13T00:12:36;97374.78;;;18.83;93.08
77431;BME280;66498;48.564;19.272;2023-07-13T00:15:06;97366.75;;;18.49;96.84
77431;BME280;66498;48.564;19.272;2023-07-13T00:17:32;97353.28;;;18.75;96.47
77431;BME280;66498;48.564;19.272;2023-07-13T00:19:58;97357.59;;;18.65;95.86
77431;BME280;66498;48.564;19.272;2023-07-13T00:22:24;97344.75;;;18.38;97.41
77431;BME280;66498;48.564;19.272;2023-07-13T00:24:52;97332.38;;;18.58;97.13
77431;BME280;66498;48.564;19.272;2023-07-13T00:27:18;97340.13;;;18.54;96.48
77431;BME280;66498;48.564;19.272;2023-07-13T00:29:44;97340.50;;;18.82;95.00
77431;BME280;66498;48.564;19.272;2023-07-13T00:32:10;97347.38;;;18.83;94.62
77431;BME280;66498;48.564;19.272;2023-07-13T00:34:37;97358.84;;;18.78;94.69
77431;BME280;66498;48.564;19.272;2023-07-13T00:37:04;97364.66;;;18.85;94.25
77431;BME280;66498;48.564;19.272;2023-07-13T00:39:32;97363.13;;;18.74;94.17
77431;BME280;66498;48.564;19.272;2023-07-13T00:41:57;97370.31;;;18.79;94.84
77431;BME280;66498;48.564;19.272;2023-07-13T00:44:23;97392.59;;;18.83;95.04
77431;BME280;66498;48.564;19.272;2023-07-13T00:46:49;97404.25;;;18.92;94.38
77431;BME280;66498;48.564;19.272;2023-07-13T00:49:17;97415.91;;;18.96;94.12
77431;BME280;66498;48.564;19.272;2023-07-13T00:54:22;97416.78;;;18.86;94.55
77431;BME280;66498;48.564;19.272;2023-07-13T00:56:50;97423.59;;;18.98;93.99
77431;BME280;66498;48.564;19.272;2023-07-13T00:59:17;97430.69;;;19.12;94.95
77431;BME280;66498;48.564;19.272;2023-07-13T01:01:44;97421.47;;;19.00;94.26
77431;BME280;66498;48.564;19.272;2023-07-13T01:04:10;97400.78;;;19.21;94.45
77431;BME280;66498;48.564;19.272;2023-07-13T01:06:37;97372.31;;;19.21;94.23
77431;BME280;66498;48.564;19.272;2023-07-13T01:09:04;97347.19;;;19.32;93.27
77431;BME280;66498;48.564;19.272;2023-07-13T01:11:29;97337.34;;;19.33;93.69
77431;BME280;66498;48.564;19.272;2023-07-13T01:13:55;97331.69;;;19.40;93.48
77431;BME280;66498;48.564;19.272;2023-07-13T01:16:32;97336.63;;;19.75;91.54
77431;BME280;66498;48.564;19.272;2023-07-13T01:18:58;97347.91;;;19.67;91.48
77431;BME280;66498;48.564;19.272;2023-07-13T01:21:27;97342.44;;;19.29;93.03
77431;BME280;66498;48.564;19.272;2023-07-13T01:23:53;97350.47;;;18.95;95.32
77431;BME280;66498;48.564;19.272;2023-07-13T01:26:19;97341.94;;;18.98;95.09
77431;BME280;66498;48.564;19.272;2023-07-13T01:28:44;97347.47;;;18.67;96.13
77431;BME280;66498;48.564;19.272;2023-07-13T01:31:10;97354.19;;;18.60;96.71
77431;BME280;66498;48.564;19.272;2023-07-13T01:33:38;97365.31;;;19.01;95.13
77431;BME280;66498;48.564;19.272;2023-07-13T01:36:08;97365.38;;;18.96;95.39
77431;BME280;66498;48.564;19.272;2023-07-13T01:38:34;97363.84;;;18.85;95.27
77431;BME280;66498;48.564;19.272;2023-07-13T01:41:00;97350.91;;;18.73;95.71
77431;BME280;66498;48.564;19.272;2023-07-13T01:43:26;97352.22;;;18.71;96.56
77431;BME280;66498;48.564;19.272;2023-07-13T01:45:51;97362.50;;;18.48;97.14
77431;BME280;66498;48.564;19.272;2023-07-13T01:48:17;97365.34;;;18.57;96.68
77431;BME280;66498;48.564;19.272;2023-07-13T01:50:43;97358.91;;;18.73;96.85
77431;BME280;66498;48.564;19.272;2023-07-13T01:53:09;97354.63;;;19.06;95.45
77431;BME280;66498;48.564;19.272;2023-07-13T01:55:35;97343.28;;;19.25;94.03
77431;BME280;66498;48.564;19.272;2023-07-13T01:58:01;97329.50;;;18.88;95.23
77431;BME280;66498;48.564;19.272;2023-07-13T02:00:27;97341.44;;;18.96;95.34
77431;BME280;66498;48.564;19.272;2023-07-13T02:02:52;97344.38;;;18.55;96.86
77431;BME280;66498;48.564;19.272;2023-07-13T02:05:18;97341.66;;;18.26;98.84
77431;BME280;66498;48.564;19.272;2023-07-13T02:07:44;97341.88;;;18.30;98.64
77431;BME280;66498;48.564;19.272;2023-07-13T02:10:10;97331.47;;;18.38;97.79
77431;BME280;66498;48.564;19.272;2023-07-13T02:12:36;97325.00;;;18.10;99.37
77431;BME280;66498;48.564;19.272;2023-07-13T02:15:03;97335.88;;;18.53;98.15
77431;BME280;66498;48.564;19.272;2023-07-13T02:17:28;97332.69;;;18.90;95.79
77431;BME280;66498;48.564;19.272;2023-07-13T02:19:54;97333.78;;;18.89;94.86
77431;BME280;66498;48.564;19.272;2023-07-13T02:22:20;97331.25;;;18.69;95.92
77431;BME280;66498;48.564;19.272;2023-07-13T02:24:46;97327.91;;;18.53;96.65
77431;BME280;66498;48.564;19.272;2023-07-13T02:27:11;97311.66;;;18.60;96.30
77431;BME280;66498;48.564;19.272;2023-07-13T02:29:37;97306.03;;;18.27;97.26
77431;BME280;66498;48.564;19.272;2023-07-13T02:32:03;97298.81;;;18.33;97.45
77431;BME280;66498;48.564;19.272;2023-07-13T02:34:28;97301.56;;;18.23;97.57
77431;BME280;66498;48.564;19.272;2023-07-13T02:36:54;97300.03;;;18.11;97.66
77431;BME280;66498;48.564;19.272;2023-07-13T02:39:19;97303.66;;;17.76;99.31
77431;BME280;66498;48.564;19.272;2023-07-13T02:41:45;97294.75;;;17.41;100.00
77431;BME280;66498;48.564;19.272;2023-07-13T02:44:12;97305.59;;;17.55;100.00
77431;BME280;66498;48.564;19.272;2023-07-13T02:46:38;97295.22;;;17.64;100.00
77431;BME280;66498;48.564;19.272;2023-07-13T02:49:04;97299.44;;;17.70;100.00
77431;BME280;66498;48.564;19.272;2023-07-13T02:51:29;97293.56;;;17.78;99.27
77431;BME280;66498;48.564;19.272;2023-07-13T02:53:55;97290.66;;;17.74;99.90
77431;BME280;66498;48.564;19.272;2023-07-13T02:56:23;97289.91;;;17.59;100.00
77431;BME280;66498;48.564;19.272;2023-07-13T02:58:49;97297.41;;;17.46;100.00
77431;BME280;66498;48.564;19.272;2023-07-13T03:01:14;97292.56;;;17.59;100.00
77431;BME280;66498;48.564;19.272;2023-07-13T03:03:43;97304.22;;;17.68;100.00
77431;BME280;66498;48.564;19.272;2023-07-13T03:06:09;97302.38;;;18.18;98.19
77431;BME280;66498;48.564;19.272;2023-07-13T03:08:34;97301.13;;;18.05;98.38
77431;BME280;66498;48.564;19.272;2023-07-13T03:11:06;97297.81;;;18.24;97.36
77431;BME280;66498;48.564;19.272;2023-07-13T03:13:32;97297.00;;;18.28;96.30
77431;BME280;66498;48.564;19.272;2023-07-13T03:15:58;97300.34;;;18.05;97.18
77431;BME280;66498;48.564;19.272;2023-07-13T03:18:26;97306.31;;;17.81;97.60
77431;BME280;66498;48.564;19.272;2023-07-13T03:20:52;97311.41;;;17.62;97.60
77431;BME280;66498;48.564;19.272;2023-07-13T03:23:19;97315.19;;;17.46;98.95
77431;BME280;66498;48.564;19.272;2023-07-13T03:25:45;97326.91;;;17.30;99.57
77431;BME280;66498;48.564;19.272;2023-07-13T03:28:14;97319.50;;;17.16;100.00
77431;BME280;66498;48.564;19.272;2023-07-13T03:30:41;97324.28;;;17.09;100.00
77431;BME280;66498;48.564;19.272;2023-07-13T03:33:07;97329.84;;;17.08;100.00
77431;BME280;66498;48.564;19.272;2023-07-13T03:35:35;97335.94;;;17.08;100.00
77431;BME280;66498;48.564;19.272;2023-07-13T03:38:01;97333.03;;;17.05;100.00
77431;BME280;66498;48.564;19.272;2023-07-13T03:40:27;97333.31;;;17.13;100.00
77431;BME280;66498;48.564;19.272;2023-07-13T03:42:53;97348.91;;;17.30;100.00
77431;BME280;66498;48.564;19.272;2023-07-13T03:45:19;97348.63;;;17.37;100.00
77431;BME280;66498;48.564;19.272;2023-07-13T03:47:44;97343.31;;;17.47;100.00
77431;BME280;66498;48.564;19.272;2023-07-13T03:50:10;97348.56;;;17.62;100.00
77431;BME280;66498;48.564;19.272;2023-07-13T03:52:36;97348.22;;;17.89;99.32
77431;BME280;66498;48.564;19.272;2023-07-13T03:55:01;97339.09;;;18.11;98.78
77431;BME280;66498;48.564;19.272;2023-07-13T03:57:27;97353.78;;;18.37;97.09
77431;BME280;66498;48.564;19.272;2023-07-13T03:59:53;97361.16;;;18.51;96.43
77431;BME280;66498;48.564;19.272;2023-07-13T04:02:18;97359.41;;;18.36;97.12
77431;BME280;66498;48.564;19.272;2023-07-13T04:04:44;97362.59;;;18.33;97.94
77431;BME280;66498;48.564;19.272;2023-07-13T04:07:10;97361.75;;;18.37;98.20
77431;BME280;66498;48.564;19.272;2023-07-13T04:09:36;97367.94;;;18.72;96.98
77431;BME280;66498;48.564;19.272;2023-07-13T04:12:01;97359.59;;;18.84;96.61
77431;BME280;66498;48.564;19.272;2023-07-13T04:14:27;97344.66;;;18.93;95.37
77431;BME280;66498;48.564;19.272;2023-07-13T04:16:55;97348.56;;;18.72;97.18
77431;BME280;66498;48.564;19.272;2023-07-13T04:19:21;97355.44;;;18.67;98.54
77431;BME280;66498;48.564;19.272;2023-07-13T04:21:47;97348.66;;;18.51;98.44
77431;BME280;66498;48.564;19.272;2023-07-13T04:24:12;97345.88;;;18.66;98.66
77431;BME280;66498;48.564;19.272;2023-07-13T04:26:38;97351.84;;;18.93;97.14
77431;BME280;66498;48.564;19.272;2023-07-13T04:29:06;97355.38;;;18.83;97.29
77431;BME280;66498;48.564;19.272;2023-07-13T04:31:32;97346.38;;;18.74;98.06
77431;BME280;66498;48.564;19.272;2023-07-13T04:33:57;97346.59;;;18.82;97.33
77431;BME280;66498;48.564;19.272;2023-07-13T04:36:24;97340.41;;;18.92;95.55
77431;BME280;66498;48.564;19.272;2023-07-13T04:38:52;97336.53;;;19.32;93.54
77431;BME280;66498;48.564;19.272;2023-07-13T04:41:20;97339.53;;;19.26;96.10
77431;BME280;66498;48.564;19.272;2023-07-13T04:43:46;97338.84;;;19.39;95.63
77431;BME280;66498;48.564;19.272;2023-07-13T04:46:13;97336.38;;;19.48;95.22
77431;BME280;66498;48.564;19.272;2023-07-13T04:48:39;97340.59;;;19.97;90.74
77431;BME280;66498;48.564;19.272;2023-07-13T04:51:05;97332.84;;;20.19;89.82
77431;BME280;66498;48.564;19.272;2023-07-13T04:53:31;97346.25;;;20.33;87.91
77431;BME280;66498;48.564;19.272;2023-07-13T04:55:57;97340.91;;;20.33;88.30
77431;BME280;66498;48.564;19.272;2023-07-13T04:58:23;97339.03;;;20.33;88.14
77431;BME280;66498;48.564;19.272;2023-07-13T05:00:49;97339.69;;;20.44;87.49
77431;BME280;66498;48.564;19.272;2023-07-13T05:03:15;97343.53;;;20.57;86.16
77431;BME280;66498;48.564;19.272;2023-07-13T05:05:41;97350.06;;;20.46;87.45
77431;BME280;66498;48.564;19.272;2023-07-13T05:08:06;97333.63;;;20.76;86.21
77431;BME280;66498;48.564;19.272;2023-07-13T05:10:33;97346.81;;;20.68;87.48
77431;BME280;66498;48.564;19.272;2023-07-13T05:12:59;97339.25;;;20.37;85.45
77431;BME280;66498;48.564;19.272;2023-07-13T05:15:24;97334.56;;;20.48;86.69
77431;BME280;66498;48.564;19.272;2023-07-13T05:17:50;97335.63;;;20.85;83.96
77431;BME280;66498;48.564;19.272;2023-07-13T05:20:18;97334.28;;;21.01;82.38
77431;BME280;66498;48.564;19.272;2023-07-13T05:22:43;97336.03;;;21.38;79.17
77431;BME280;66498;48.564;19.272;2023-07-13T05:25:09;97338.16;;;21.22;80.38
77431;BME280;66498;48.564;19.272;2023-07-13T05:27:35;97336.50;;;21.26;81.06
77431;BME280;66498;48.564;19.272;2023-07-13T05:30:02;97327.34;;;21.60;80.05
77431;BME280;66498;48.564;19.272;2023-07-13T05:32:28;97317.84;;;21.54;79.43
77431;BME280;66498;48.564;19.272;2023-07-13T05:34:54;97319.63;;;21.72;79.44
77431;BME280;66498;48.564;19.272;2023-07-13T05:37:19;97326.13;;;21.80;78.76
77431;BME280;66498;48.564;19.272;2023-07-13T05:39:45;97326.94;;;21.81;78.96
77431;BME280;66498;48.564;19.272;2023-07-13T05:42:10;97325.69;;;22.01;79.06
77431;BME280;66498;48.564;19.272;2023-07-13T05:44:36;97327.59;;;22.00;78.95
77431;BME280;66498;48.564;19.272;2023-07-13T05:47:01;97325.41;;;22.02;77.95
77431;BME280;66498;48.564;19.272;2023-07-13T05:49:27;97333.19;;;22.26;77.74
77431;BME280;66498;48.564;19.272;2023-07-13T05:51:54;97338.22;;;22.28;78.13
77431;BME280;66498;48.564;19.272;2023-07-13T05:54:20;97341.09;;;22.31;79.00
77431;BME280;66498;48.564;19.272;2023-07-13T05:56:45;97363.22;;;22.09;79.54
77431;BME280;66498;48.564;19.272;2023-07-13T05:59:11;97391.94;;;21.62;82.40
77431;BME280;66498;48.564;19.272;2023-07-13T06:01:37;97401.38;;;21.27;82.79
77431;BME280;66498;48.564;19.272;2023-07-13T06:04:02;97399.41;;;21.00;83.93
77431;BME280;66498;48.564;19.272;2023-07-13T06:06:28;97392.06;;;20.92;83.84
77431;BME280;66498;48.564;19.272;2023-07-13T06:08:54;97397.56;;;20.82;84.53
77431;BME280;66498;48.564;19.272;2023-07-13T06:11:22;97398.56;;;20.86;83.74
77431;BME280;66498;48.564;19.272;2023-07-13T06:13:48;97398.94;;;20.79;84.40
77431;BME280;66498;48.564;19.272;2023-07-13T06:16:14;97410.25;;;20.90;84.34
77431;BME280;66498;48.564;19.272;2023-07-13T06:18:40;97406.91;;;20.98;84.51
77431;BME280;66498;48.564;19.272;2023-07-13T06:21:11;97406.47;;;21.10;84.19
77431;BME280;66498;48.564;19.272;2023-07-13T06:23:37;97409.19;;;21.05;84.65
77431;BME280;66498;48.564;19.272;2023-07-13T06:26:04;97402.16;;;21.27;84.10
77431;BME280;66498;48.564;19.272;2023-07-13T06:28:30;97401.84;;;21.29;84.34
77431;BME280;66498;48.564;19.272;2023-07-13T06:30:57;97409.88;;;20.96;85.75
77431;BME280;66498;48.564;19.272;2023-07-13T06:33:23;97407.28;;;20.91;86.69
77431;BME280;66498;48.564;19.272;2023-07-13T06:35:48;97409.72;;;20.88;89.46
77431;BME280;66498;48.564;19.272;2023-07-13T06:38:14;97407.47;;;20.95;89.24
77431;BME280;66498;48.564;19.272;2023-07-13T06:40:39;97405.69;;;20.90;88.54
77431;BME280;66498;48.564;19.272;2023-07-13T06:43:05;97399.84;;;20.88;90.00
77431;BME280;66498;48.564;19.272;2023-07-13T06:45:35;97403.25;;;20.94;90.34
77431;BME280;66498;48.564;19.272;2023-07-13T06:48:00;97395.56;;;20.54;89.51
77431;BME280;66498;48.564;19.272;2023-07-13T06:50:26;97399.94;;;20.45;89.08
77431;BME280;66498;48.564;19.272;2023-07-13T06:52:51;97398.78;;;20.51;89.98
77431;BME280;66498;48.564;19.272;2023-07-13T06:55:18;97396.41;;;20.50;90.90
77431;BME280;66498;48.564;19.272;2023-07-13T06:57:43;97397.81;;;20.23;90.50
77431;BME280;66498;48.564;19.272;2023-07-13T07:00:09;97398.81;;;20.27;92.11
77431;BME280;66498;48.564;19.272;2023-07-13T07:02:35;97394.75;;;20.35;94.63
77431;BME280;66498;48.564;19.272;2023-07-13T07:05:00;97387.38;;;20.27;93.52
77431;BME280;66498;48.564;19.272;2023-07-13T07:07:26;97389.59;;;20.20;94.36
77431;BME280;66498;48.564;19.272;2023-07-13T07:09:51;97381.69;;;20.15;93.44
77431;BME280;66498;48.564;19.272;2023-07-13T07:12:17;97382.25;;;20.30;91.40
77431;BME280;66498;48.564;19.272;2023-07-13T07:14:42;97378.19;;;20.38;93.20
77431;BME280;66498;48.564;19.272;2023-07-13T07:17:08;97376.56;;;20.37;94.52
77431;BME280;66498;48.564;19.272;2023-07-13T07:19:35;97373.22;;;20.31;94.59
77431;BME280;66498;48.564;19.272;2023-07-13T07:22:00;97362.38;;;20.23;97.09
77431;BME280;66498;48.564;19.272;2023-07-13T07:24:26;97365.94;;;20.18;97.34
77431;BME280;66498;48.564;19.272;2023-07-13T07:26:52;97355.53;;;20.17;99.62
77431;BME280;66498;48.564;19.272;2023-07-13T07:29:17;97349.91;;;19.99;100.00
77431;BME280;66498;48.564;19.272;2023-07-13T07:31:43;97330.34;;;20.09;100.00
77431;BME280;66498;48.564;19.272;2023-07-13T07:34:08;97294.84;;;19.95;100.00
77431;BME280;66498;48.564;19.272;2023-07-13T07:36:34;97217.25;;;19.58;100.00
77431;BME280;66498;48.564;19.272;2023-07-13T07:38:59;97165.41;;;19.32;100.00
77431;BME280;66498;48.564;19.272;2023-07-13T07:41:25;97190.53;;;19.45;100.00
77431;BME280;66498;48.564;19.272;2023-07-13T07:43:50;97234.25;;;20.00;100.00
77431;BME280;66498;48.564;19.272;2023-07-13T07:46:16;97252.75;;;20.29;98.20
77431;BME280;66498;48.564;19.272;2023-07-13T07:48:41;97246.94;;;20.41;99.80
77431;BME280;66498;48.564;19.272;2023-07-13T07:51:07;97230.34;;;20.63;98.62
77431;BME280;66498;48.564;19.272;2023-07-13T07:53:32;97218.63;;;20.78;99.80
77431;BME280;66498;48.564;19.272;2023-07-13T07:55:58;97230.72;;;21.31;96.83
77431;BME280;66498;48.564;19.272;2023-07-13T07:58:24;97252.78;;;21.86;93.41
77431;BME280;66498;48.564;19.272;2023-07-13T08:00:49;97259.63;;;22.29;92.07
77431;BME280;66498;48.564;19.272;2023-07-13T08:03:15;97260.41;;;22.29;92.58
77431;BME280;66498;48.564;19.272;2023-07-13T08:05:40;97262.59;;;23.03;90.59
77431;BME280;66498;48.564;19.272;2023-07-13T08:08:06;97269.97;;;23.46;84.48
77431;BME280;66498;48.564;19.272;2023-07-13T08:10:35;97285.53;;;23.84;84.93
77431;BME280;66498;48.564;19.272;2023-07-13T08:13:01;97284.38;;;23.59;82.82
77431;BME280;66498;48.564;19.272;2023-07-13T08:15:27;97283.25;;;23.60;82.28
77431;BME280;66498;48.564;19.272;2023-07-13T08:17:53;97287.63;;;23.38;83.68
77431;BME280;66498;48.564;19.272;2023-07-13T08:20:21;97299.81;;;23.13;82.78
77431;BME280;66498;48.564;19.272;2023-07-13T08:22:47;97298.97;;;23.04;82.63
77431;BME280;66498;48.564;19.272;2023-07-13T08:25:13;97287.84;;;23.20;82.27
77431;BME280;66498;48.564;19.272;2023-07-13T08:27:38;97294.81;;;23.21;81.72
77431;BME280;66498;48.564;19.272;2023-07-13T08:30:05;97294.31;;;23.19;82.95
77431;BME280;66498;48.564;19.272;2023-07-13T08:32:30;97293.44;;;22.78;82.51
77431;BME280;66498;48.564;19.272;2023-07-13T08:34:56;97306.03;;;22.55;83.38
77431;BME280;66498;48.564;19.272;2023-07-13T08:37:22;97308.78;;;22.41;83.93
77431;BME280;66498;48.564;19.272;2023-07-13T08:39:47;97311.28;;;22.60;85.55
77431;BME280;66498;48.564;19.272;2023-07-13T08:42:36;97314.69;;;22.52;86.92
77431;BME280;66498;48.564;19.272;2023-07-13T08:48:14;97321.81;;;22.20;84.53
77431;BME280;66498;48.564;19.272;2023-07-13T08:51:04;97324.50;;;22.07;85.36
77431;BME280;66498;48.564;19.272;2023-07-13T08:53:46;97325.69;;;22.28;85.02
77431;BME280;66498;48.564;19.272;2023-07-13T08:56:21;97335.41;;;22.47;85.03
77431;BME280;66498;48.564;19.272;2023-07-13T08:58:51;97338.69;;;22.43;84.46
77431;BME280;66498;48.564;19.272;2023-07-13T09:04:16;97339.69;;;21.70;87.05
77431;BME280;66498;48.564;19.272;2023-07-13T09:07:56;97340.59;;;21.79;87.26
77431;BME280;66498;48.564;19.272;2023-07-13T09:10:20;97347.03;;;21.78;86.12
77431;BME280;66498;48.564;19.272;2023-07-13T09:15:34;97357.22;;;21.76;86.28
77431;BME280;66498;48.564;19.272;2023-07-13T09:18:08;97355.91;;;21.60;87.08
77431;BME280;66498;48.564;19.272;2023-07-13T09:20:46;97353.56;;;21.44;86.07
77431;BME280;66498;48.564;19.272;2023-07-13T09:23:20;97361.25;;;21.60;86.16
77431;BME280;66498;48.564;19.272;2023-07-13T09:25:53;97350.75;;;21.77;86.18
77431;BME280;66498;48.564;19.272;2023-07-13T09:28:29;97361.13;;;22.06;84.85
77431;BME280;66498;48.564;19.272;2023-07-13T09:31:15;97361.56;;;21.86;83.56
77431;BME280;66498;48.564;19.272;2023-07-13T09:33:42;97366.69;;;22.24;84.60
77431;BME280;66498;48.564;19.272;2023-07-13T09:36:22;97357.97;;;22.32;82.62
77431;BME280;66498;48.564;19.272;2023-07-13T09:38:57;97358.78;;;22.05;81.85
77431;BME280;66498;48.564;19.272;2023-07-13T09:41:33;97365.91;;;21.95;83.39
77431;BME280;66498;48.564;19.272;2023-07-13T09:44:17;97352.81;;;21.94;82.89
77431;BME280;66498;48.564;19.272;2023-07-13T09:46:52;97359.00;;;21.94;83.75
77431;BME280;66498;48.564;19.272;2023-07-13T09:49:18;97367.00;;;22.22;81.97
77431;BME280;66498;48.564;19.272;2023-07-13T09:51:44;97368.25;;;22.11;82.01
77431;BME280;66498;48.564;19.272;2023-07-13T09:54:20;97361.56;;;22.50;80.49
77431;BME280;66498;48.564;19.272;2023-07-13T09:56:54;97357.19;;;22.99;79.67
77431;BME280;66498;48.564;19.272;2023-07-13T09:59:23;97366.66;;;22.96;79.76
77431;BME280;66498;48.564;19.272;2023-07-13T10:01:49;97364.72;;;23.19;77.89
77431;BME280;66498;48.564;19.272;2023-07-13T10:04:18;97363.75;;;22.93;77.11
77431;BME280;66498;48.564;19.272;2023-07-13T10:06:45;97357.97;;;22.77;78.78
77431;BME280;66498;48.564;19.272;2023-07-13T10:09:16;97362.16;;;22.91;77.84
77431;BME280;66498;48.564;19.272;2023-07-13T10:11:41;97362.59;;;22.85;77.61
77431;BME280;66498;48.564;19.272;2023-07-13T10:14:17;97359.97;;;23.16;78.35
77431;BME280;66498;48.564;19.272;2023-07-13T10:16:46;97364.97;;;22.86;77.49
77431;BME280;66498;48.564;19.272;2023-07-13T10:21:57;97363.81;;;23.24;75.85
77431;BME280;66498;48.564;19.272;2023-07-13T10:24:30;97354.09;;;23.36;74.50
77431;BME280;66498;48.564;19.272;2023-07-13T10:29:45;97338.50;;;23.78;74.86
77431;BME280;66498;48.564;19.272;2023-07-13T10:32:12;97346.91;;;24.03;72.55
77431;BME280;66498;48.564;19.272;2023-07-13T10:34:39;97342.50;;;24.24;70.50
77431;BME280;66498;48.564;19.272;2023-07-13T10:37:07;97339.69;;;24.90;68.69
77431;BME280;66498;48.564;19.272;2023-07-13T10:39:40;97342.66;;;25.15;67.94
77431;BME280;66498;48.564;19.272;2023-07-13T10:42:11;97347.25;;;24.88;68.54
77431;BME280;66498;48.564;19.272;2023-07-13T10:44:39;97340.03;;;24.54;69.68
77431;BME280;66498;48.564;19.272;2023-07-13T10:47:08;97331.94;;;24.28;68.91
77431;BME280;66498;48.564;19.272;2023-07-13T10:49:37;97331.00;;;24.85;69.33
77431;BME280;66498;48.564;19.272;2023-07-13T10:52:04;97329.00;;;25.29;66.51
77431;BME280;66498;48.564;19.272;2023-07-13T10:54:33;97324.59;;;25.62;66.34
77431;BME280;66498;48.564;19.272;2023-07-13T10:57:19;97329.81;;;26.18;62.74
77431;BME280;66498;48.564;19.272;2023-07-13T11:00:10;97323.97;;;26.58;60.52
77431;BME280;66498;48.564;19.272;2023-07-13T11:02:35;97325.19;;;26.81;57.79
77431;BME280;66498;48.564;19.272;2023-07-13T11:05:17;97329.25;;;27.33;57.83
77431;BME280;66498;48.564;19.272;2023-07-13T11:07:55;97333.66;;;27.04;59.61
77431;BME280;66498;48.564;19.272;2023-07-13T11:11:00;97323.81;;;27.21;59.34
77431;BME280;66498;48.564;19.272;2023-07-13T11:16:00;97328.66;;;26.82;59.24
77431;BME280;66498;48.564;19.272;2023-07-13T11:18:25;97336.28;;;27.13;59.41
77431;BME280;66498;48.564;19.272;2023-07-13T11:20:51;97317.00;;;27.35;59.96
77431;BME280;66498;48.564;19.272;2023-07-13T11:23:27;97322.13;;;27.04;61.71
77431;BME280;66498;48.564;19.272;2023-07-13T11:25:54;97306.63;;;27.01;59.43
77431;BME280;66498;48.564;19.272;2023-07-13T11:28:23;97298.25;;;27.39;56.88
77431;BME280;66498;48.564;19.272;2023-07-13T11:31:00;97318.25;;;26.93;58.60
77431;BME280;66498;48.564;19.272;2023-07-13T11:36:13;97310.50;;;27.49;55.96
77431;BME280;66498;48.564;19.272;2023-07-13T11:38:42;97325.66;;;26.41;61.42
77431;BME280;66498;48.564;19.272;2023-07-13T11:41:20;97335.66;;;25.99;61.79
77431;BME280;66498;48.564;19.272;2023-07-13T11:43:50;97341.59;;;26.05;62.36
77431;BME280;66498;48.564;19.272;2023-07-13T11:46:26;97336.09;;;25.33;63.29
77431;BME280;66498;48.564;19.272;2023-07-13T11:48:53;97330.19;;;24.93;64.89
77431;BME280;66498;48.564;19.272;2023-07-13T11:51:25;97330.72;;;24.25;66.12
77431;BME280;66498;48.564;19.272;2023-07-13T11:53:54;97333.38;;;24.34;66.60
77431;BME280;66498;48.564;19.272;2023-07-13T11:56:20;97328.81;;;24.61;66.93
77431;BME280;66498;48.564;19.272;2023-07-13T11:58:51;97328.03;;;26.01;63.73
77431;BME280;66498;48.564;19.272;2023-07-13T12:01:25;97324.63;;;26.55;58.60
77431;BME280;66498;48.564;19.272;2023-07-13T12:03:52;97325.94;;;26.28;58.76
77431;BME280;66498;48.564;19.272;2023-07-13T12:06:33;97324.19;;;25.81;58.19
77431;BME280;66498;48.564;19.272;2023-07-13T12:09:08;97318.19;;;26.68;55.89
77431;BME280;66498;48.564;19.272;2023-07-13T12:11:40;97329.25;;;27.33;54.50
77431;BME280;66498;48.564;19.272;2023-07-13T12:14:10;97326.66;;;27.36;54.06
77431;BME280;66498;48.564;19.272;2023-07-13T12:16:37;97333.97;;;27.73;56.42
77431;BME280;66498;48.564;19.272;2023-07-13T12:19:03;97334.94;;;26.74;56.08
77431;BME280;66498;48.564;19.272;2023-07-13T12:21:36;97338.50;;;25.94;58.00
77431;BME280;66498;48.564;19.272;2023-07-13T12:24:02;97337.91;;;25.59;59.34
77431;BME280;66498;48.564;19.272;2023-07-13T12:26:30;97335.38;;;25.54;58.58
77431;BME280;66498;48.564;19.272;2023-07-13T12:28:59;97333.25;;;25.38;59.04
77431;BME280;66498;48.564;19.272;2023-07-13T12:31:30;97326.13;;;26.43;57.29
77431;BME280;66498;48.564;19.272;2023-07-13T12:34:05;97313.50;;;26.77;58.38
77431;BME280;66498;48.564;19.272;2023-07-13T12:36:33;97316.09;;;26.32;57.49
77431;BME280;66498;48.564;19.272;2023-07-13T12:39:04;97328.66;;;27.15;55.31
77431;BME280;66498;48.564;19.272;2023-07-13T12:41:35;97323.28;;;27.15;55.84
77431;BME280;66498;48.564;19.272;2023-07-13T12:44:01;97315.25;;;26.61;55.41
77431;BME280;66498;48.564;19.272;2023-07-13T12:46:26;97306.53;;;26.43;54.86
77431;BME280;66498;48.564;19.272;2023-07-13T12:48:54;97299.44;;;25.97;53.48
77431;BME280;66498;48.564;19.272;2023-07-13T12:51:27;97303.69;;;26.39;53.38
77431;BME280;66498;48.564;19.272;2023-07-13T12:54:05;97302.16;;;26.72;52.38
77431;BME280;66498;48.564;19.272;2023-07-13T12:56:33;97307.25;;;26.85;52.09
77431;BME280;66498;48.564;19.272;2023-07-13T12:59:02;97311.19;;;27.00;53.30
77431;BME280;66498;48.564;19.272;2023-07-13T13:01:33;97298.59;;;26.26;54.55
77431;BME280;66498;48.564;19.272;2023-07-13T13:04:01;97308.41;;;25.80;54.93
77431;BME280;66498;48.564;19.272;2023-07-13T13:06:32;97302.84;;;25.46;54.54
77431;BME280;66498;48.564;19.272;2023-07-13T13:09:03;97308.06;;;25.05;55.67
77431;BME280;66498;48.564;19.272;2023-07-13T13:11:30;97310.59;;;24.92;56.76
77431;BME280;66498;48.564;19.272;2023-07-13T13:13:56;97308.44;;;24.77;57.85
77431;BME280;66498;48.564;19.272;2023-07-13T13:18:53;97312.41;;;25.27;57.02